createdAt,value
2019-06-01T00:00:11.298Z,8.73
2019-06-01T00:02:35.678Z,10.30
2019-06-01T00:05:07.634Z,10.60
2019-06-01T00:07:35.926Z,10.17
2019-06-01T00:10:06.136Z,8.77
2019-06-01T00:12:34.445Z,14.93
2019-06-01T00:15:03.490Z,10.07
2019-06-01T00:17:31.785Z,10.20
2019-06-01T00:20:01.505Z,11.00
2019-06-01T00:22:29.764Z,9.30
2019-06-01T00:24:58.104Z,8.60
2019-06-01T00:27:26.394Z,10.07
2019-06-01T00:29:54.729Z,11.07
2019-06-01T00:32:23.064Z,8.47
2019-06-01T00:34:51.885Z,7.60
2019-06-01T00:37:20.391Z,10.77
2019-06-01T00:39:49.877Z,10.00
2019-06-01T00:42:18.904Z,9.80
2019-06-01T00:44:48.460Z,9.57
2019-06-01T00:47:16.955Z,10.43
2019-06-01T00:49:45.265Z,10.67
2019-06-01T00:52:13.588Z,7.80
2019-06-01T00:54:43.094Z,7.70
2019-06-01T00:57:11.584Z,8.60
2019-06-01T00:59:39.872Z,8.80
2019-06-01T01:02:08.358Z,7.93
2019-06-01T01:04:36.647Z,8.00
2019-06-01T01:07:05.177Z,8.87
2019-06-01T01:09:33.481Z,12.63
2019-06-01T01:12:01.808Z,8.60
2019-06-01T01:14:33.460Z,8.60
2019-06-01T01:17:01.763Z,8.20
2019-06-01T01:19:30.121Z,8.20
2019-06-01T01:21:59.003Z,7.83
2019-06-01T01:24:27.357Z,7.80
2019-06-01T01:26:56.811Z,8.47
2019-06-01T01:29:25.299Z,7.10
2019-06-01T01:31:53.625Z,8.47
2019-06-01T01:34:21.990Z,7.00
2019-06-01T01:36:50.320Z,7.50
2019-06-01T01:39:18.665Z,8.07
2019-06-01T01:41:48.016Z,16.00
2019-06-01T01:44:16.334Z,6.97
2019-06-01T01:46:44.905Z,11.10
2019-06-01T01:49:13.189Z,7.57
2019-06-01T01:51:41.612Z,7.50
2019-06-01T01:54:09.998Z,6.70
2019-06-01T01:56:38.340Z,10.50
2019-06-01T01:59:06.660Z,8.00
2019-06-01T02:01:34.938Z,6.60
2019-06-01T02:04:03.460Z,9.33
2019-06-01T02:06:31.743Z,9.70
2019-06-01T02:09:01.756Z,7.57
2019-06-01T02:11:30.292Z,10.23
2019-06-01T02:13:59.779Z,7.33
2019-06-01T02:16:28.303Z,6.10
2019-06-01T02:18:57.505Z,7.17
2019-06-01T02:21:26.623Z,7.03
2019-06-01T02:23:55.034Z,6.93
2019-06-01T02:26:23.327Z,7.03
2019-06-01T02:28:53.124Z,10.90
2019-06-01T02:31:37.455Z,6.57
2019-06-01T02:33:51.573Z,8.20
2019-06-01T02:36:19.868Z,6.87
2019-06-01T02:38:48.286Z,7.20
2019-06-01T02:41:16.894Z,6.20
2019-06-01T02:43:45.418Z,6.67
2019-06-01T02:46:13.703Z,6.40
2019-06-01T02:48:42.012Z,7.33
2019-06-01T02:51:10.375Z,7.27
2019-06-01T02:53:38.683Z,8.13
2019-06-01T02:56:07.052Z,9.13
2019-06-01T02:58:35.667Z,9.73
2019-06-01T03:01:13.167Z,6.23
2019-06-01T03:03:42.142Z,8.83
2019-06-01T03:06:12.719Z,8.83
2019-06-01T03:08:41.946Z,7.87
2019-06-01T03:11:11.836Z,7.97
2019-06-01T03:13:40.493Z,6.57
2019-06-01T03:16:10.064Z,11.30
2019-06-01T03:18:39.939Z,6.80
2019-06-01T03:21:09.299Z,6.73
2019-06-01T03:23:39.127Z,6.30
2019-06-01T03:26:08.774Z,6.07
2019-06-01T03:28:40.171Z,6.77
2019-06-01T03:31:10.487Z,13.53
2019-06-01T03:33:38.652Z,12.50
2019-06-01T03:36:07.115Z,10.00
2019-06-01T03:38:35.486Z,7.10
2019-06-01T03:41:04.206Z,7.63
2019-06-01T03:43:32.624Z,8.20
2019-06-01T03:46:02.478Z,5.90
2019-06-01T03:48:30.973Z,5.47
2019-06-01T03:50:59.366Z,7.10
2019-06-01T03:53:27.682Z,6.97
2019-06-01T03:55:55.991Z,6.60
2019-06-01T03:58:24.342Z,5.77
2019-06-01T04:00:52.658Z,9.57
2019-06-01T04:03:21.111Z,7.77
2019-06-01T04:05:49.595Z,6.57
2019-06-01T04:08:17.878Z,7.77
2019-06-01T04:10:46.227Z,8.63
2019-06-01T04:13:14.527Z,6.90
2019-06-01T04:15:42.985Z,7.30
2019-06-01T04:18:13.916Z,7.43
2019-06-01T04:20:42.267Z,6.77
2019-06-01T04:23:10.779Z,8.20
2019-06-01T04:25:39.138Z,6.77
2019-06-01T04:28:10.285Z,11.67
2019-06-01T04:30:38.684Z,6.13
2019-06-01T04:33:07.078Z,6.90
2019-06-01T04:35:35.491Z,7.30
2019-06-01T04:38:05.009Z,8.63
2019-06-01T04:40:33.459Z,10.77
2019-06-01T04:43:01.801Z,10.97
2019-06-01T04:45:30.102Z,10.77
2019-06-01T04:47:58.483Z,7.33
2019-06-01T04:50:26.842Z,8.20
2019-06-01T04:52:55.166Z,7.60
2019-06-01T04:55:23.451Z,13.20
2019-06-01T04:57:51.784Z,13.43
2019-06-01T05:00:27.252Z,11.97
2019-06-01T05:03:04.477Z,8.03
2019-06-01T05:05:20.527Z,15.10
2019-06-01T05:07:48.926Z,12.03
2019-06-01T05:10:17.309Z,19.53
2019-06-01T05:12:45.992Z,14.23
2019-06-01T05:15:16.703Z,20.60
2019-06-01T05:17:45.075Z,18.57
2019-06-01T05:20:16.611Z,15.20
2019-06-01T05:22:45.023Z,11.97
2019-06-01T05:25:13.731Z,10.17
2019-06-01T05:27:43.553Z,9.33
2019-06-01T05:30:13.686Z,13.77
2019-06-01T05:32:42.201Z,11.13
2019-06-01T05:35:11.788Z,13.07
2019-06-01T05:37:40.530Z,8.60
2019-06-01T05:40:12.746Z,9.00
2019-06-01T05:42:41.033Z,9.40
2019-06-01T05:45:11.275Z,18.40
2019-06-01T05:47:40.052Z,15.77
2019-06-01T05:50:08.749Z,12.80
2019-06-01T05:52:37.364Z,12.50
2019-06-01T05:55:06.814Z,10.53
2019-06-01T05:57:35.116Z,8.93
2019-06-01T06:00:05.615Z,14.13
2019-06-01T06:02:34.009Z,10.20
2019-06-01T06:05:02.345Z,14.60
2019-06-01T06:07:30.650Z,16.47
2019-06-01T06:09:58.995Z,10.20
2019-06-01T06:12:27.389Z,8.97
2019-06-01T06:14:55.701Z,16.30
2019-06-01T06:17:24.536Z,12.10
2019-06-01T06:19:53.077Z,7.33
2019-06-01T06:22:22.406Z,7.83
2019-06-01T06:24:51.110Z,8.50
2019-06-01T06:27:20.626Z,14.93
2019-06-01T06:29:49.107Z,6.63
2019-06-01T06:32:17.485Z,7.30
2019-06-01T06:34:45.780Z,9.27
2019-06-01T06:37:14.107Z,9.57
2019-06-01T06:39:42.424Z,8.47
2019-06-01T06:42:10.928Z,10.10
2019-06-01T06:44:39.248Z,7.47
2019-06-01T06:47:07.589Z,6.77
2019-06-01T06:49:36.047Z,6.40
2019-06-01T06:52:04.533Z,6.73
2019-06-01T06:54:32.972Z,11.90
2019-06-01T06:57:01.384Z,6.13
2019-06-01T06:59:29.664Z,7.70
2019-06-01T07:01:58.073Z,4.80
2019-06-01T07:04:27.493Z,5.50
2019-06-01T07:06:55.997Z,6.67
2019-06-01T07:09:24.392Z,6.53
2019-06-01T07:11:52.789Z,5.07
2019-06-01T07:14:21.310Z,7.93
2019-06-01T07:16:49.703Z,5.20
2019-06-01T07:19:17.977Z,5.63
2019-06-01T07:21:46.540Z,6.30
2019-06-01T07:24:14.932Z,5.43
2019-06-01T07:26:43.344Z,5.30
2019-06-01T07:29:11.605Z,5.40
2019-06-01T07:31:39.918Z,5.00
2019-06-01T07:34:08.276Z,6.20
2019-06-01T07:36:36.700Z,7.53
2019-06-01T07:39:06.865Z,5.30
2019-06-01T07:41:35.276Z,6.43
2019-06-01T07:44:04.396Z,4.70
2019-06-01T07:46:33.236Z,7.00
2019-06-01T07:49:01.771Z,5.60
2019-06-01T07:51:31.568Z,6.83
2019-06-01T07:54:00.113Z,6.10
2019-06-01T07:56:28.717Z,4.30
2019-06-01T07:58:57.053Z,5.00
2019-06-01T08:01:27.139Z,7.77
2019-06-01T08:03:55.557Z,5.03
2019-06-01T08:06:25.690Z,5.07
2019-06-01T08:08:54.106Z,5.27
2019-06-01T08:11:25.492Z,10.37
2019-06-01T08:13:52.884Z,6.27
2019-06-01T08:16:21.425Z,5.10
2019-06-01T08:18:53.075Z,5.00
2019-06-01T08:21:20.076Z,5.67
2019-06-01T08:23:48.394Z,6.43
2019-06-01T08:26:19.963Z,5.20
2019-06-01T08:28:46.825Z,6.07
2019-06-01T08:31:15.185Z,6.70
2019-06-01T08:33:43.531Z,4.20
2019-06-01T08:36:11.830Z,5.50
2019-06-01T08:38:40.151Z,4.93
2019-06-01T08:41:08.525Z,5.73
2019-06-01T08:43:36.907Z,3.87
2019-06-01T08:46:05.308Z,4.30
2019-06-01T08:48:34.099Z,3.77
2019-06-01T08:51:02.671Z,3.97
2019-06-01T08:53:32.168Z,6.17
2019-06-01T08:56:00.793Z,3.83
2019-06-01T08:58:30.138Z,4.40
2019-06-01T09:00:58.653Z,6.13
2019-06-01T09:03:27.744Z,3.47
2019-06-01T09:05:56.301Z,4.40
2019-06-01T09:08:26.004Z,3.13
2019-06-01T09:10:56.126Z,3.27
2019-06-01T09:13:25.119Z,3.03
2019-06-01T09:15:53.511Z,4.33
2019-06-01T09:18:21.787Z,2.93
2019-06-01T09:20:50.173Z,5.93
2019-06-01T09:23:18.613Z,2.77
2019-06-01T09:25:46.934Z,2.87
2019-06-01T09:28:15.210Z,2.37
2019-06-01T09:30:43.912Z,3.13
2019-06-01T09:33:12.268Z,2.90
2019-06-01T09:35:54.228Z,2.77
2019-06-01T09:38:10.652Z,2.97
2019-06-01T09:40:39.043Z,2.80
2019-06-01T09:43:07.493Z,2.47
2019-06-01T09:45:36.348Z,6.47
2019-06-01T09:48:05.260Z,4.30
2019-06-01T09:50:33.580Z,2.77
2019-06-01T09:53:01.901Z,2.70
2019-06-01T09:55:31.382Z,2.77
2019-06-01T09:58:00.379Z,2.47
2019-06-01T10:00:28.759Z,2.90
2019-06-01T10:02:57.060Z,2.50
2019-06-01T10:05:25.415Z,5.43
2019-06-01T10:07:53.734Z,4.00
2019-06-01T10:10:22.095Z,3.10
2019-06-01T10:12:50.442Z,4.90
2019-06-01T10:15:18.849Z,3.30
2019-06-01T10:17:47.234Z,2.83
2019-06-01T10:20:16.205Z,3.43
2019-06-01T10:22:44.494Z,2.00
2019-06-01T10:25:12.928Z,4.03
2019-06-01T10:27:42.759Z,2.83
2019-06-01T10:30:13.101Z,2.93
2019-06-01T10:32:42.164Z,4.83
2019-06-01T10:35:10.568Z,1.80
2019-06-01T10:37:39.697Z,3.33
2019-06-01T10:40:08.349Z,2.27
2019-06-01T10:42:38.098Z,2.27
2019-06-01T10:45:07.039Z,5.10
2019-06-01T10:47:36.033Z,2.40
2019-06-01T10:50:06.297Z,2.50
2019-06-01T10:52:36.092Z,3.20
2019-06-01T10:55:06.249Z,2.93
2019-06-01T10:57:34.750Z,2.13
2019-06-01T11:00:04.214Z,2.80
2019-06-01T11:02:32.622Z,4.20
2019-06-01T11:05:00.918Z,2.27
2019-06-01T11:07:29.463Z,2.20
2019-06-01T11:09:57.810Z,2.80
2019-06-01T11:12:26.118Z,2.23
2019-06-01T11:14:54.550Z,2.90
2019-06-01T11:17:22.975Z,3.50
2019-06-01T11:19:51.279Z,1.90
2019-06-01T11:22:19.831Z,3.07
2019-06-01T11:24:48.205Z,2.50
2019-06-01T11:27:16.574Z,2.90
2019-06-01T11:29:50.969Z,2.07
2019-06-01T11:32:15.105Z,2.07
2019-06-01T11:34:44.507Z,3.07
2019-06-01T11:37:15.444Z,2.27
2019-06-01T11:39:43.018Z,2.20
2019-06-01T11:42:11.417Z,2.10
2019-06-01T11:44:40.711Z,2.10
2019-06-01T11:47:09.074Z,2.83
2019-06-01T11:49:38.630Z,2.27
2019-06-01T11:52:07.060Z,2.30
2019-06-01T11:54:35.461Z,3.80
2019-06-01T11:57:04.065Z,2.77
2019-06-01T11:59:32.476Z,2.20
2019-06-01T12:02:00.874Z,3.43
2019-06-01T12:04:29.274Z,2.53
2019-06-01T12:07:13.700Z,2.40
2019-06-01T12:09:27.615Z,2.10
2019-06-01T12:11:55.907Z,3.10
2019-06-01T12:14:24.319Z,3.20
2019-06-01T12:16:52.594Z,2.57
2019-06-01T12:19:21.211Z,2.73
2019-06-01T12:21:49.590Z,3.43
2019-06-01T12:24:17.979Z,2.43
2019-06-01T12:26:47.499Z,3.13
2019-06-01T12:29:15.995Z,2.90
2019-06-01T12:31:44.332Z,3.00
2019-06-01T12:34:12.704Z,4.27
2019-06-01T12:36:42.574Z,2.57
2019-06-01T12:39:11.062Z,5.23
2019-06-01T12:41:39.781Z,2.63
2019-06-01T12:44:09.953Z,3.37
2019-06-01T12:46:39.676Z,3.83
2019-06-01T12:49:08.261Z,3.77
2019-06-01T12:51:36.658Z,3.10
2019-06-01T12:54:09.547Z,2.37
2019-06-01T12:56:37.949Z,2.40
2019-06-01T12:59:06.304Z,2.13
2019-06-01T13:01:34.712Z,2.07
2019-06-01T13:04:03.184Z,7.13
2019-06-01T13:06:31.566Z,1.70
2019-06-01T13:08:59.950Z,2.37
2019-06-01T13:11:28.358Z,1.80
2019-06-01T13:13:56.753Z,7.50
2019-06-01T13:16:25.254Z,1.73
2019-06-01T13:18:53.920Z,3.57
2019-06-01T13:21:22.421Z,1.80
2019-06-01T13:23:51.606Z,2.73
2019-06-01T13:26:19.967Z,1.90
2019-06-01T13:28:48.376Z,1.50
2019-06-01T13:31:16.682Z,1.80
2019-06-01T13:33:46.373Z,1.83
2019-06-01T13:36:14.745Z,2.23
2019-06-01T13:38:43.071Z,2.07
2019-06-01T13:41:11.559Z,4.80
2019-06-01T13:43:39.925Z,1.70
2019-06-01T13:46:08.209Z,1.80
2019-06-01T13:48:36.599Z,2.20
2019-06-01T13:51:05.042Z,4.30
2019-06-01T13:53:33.429Z,1.53
2019-06-01T13:56:01.731Z,1.70
2019-06-01T13:58:30.071Z,4.93
2019-06-01T14:00:58.449Z,3.20
2019-06-01T14:03:26.894Z,1.60
2019-06-01T14:05:55.443Z,2.40
2019-06-01T14:08:29.036Z,1.77
2019-06-01T14:10:53.857Z,1.60
2019-06-01T14:13:22.205Z,2.30
2019-06-01T14:15:51.569Z,1.80
2019-06-01T14:18:20.148Z,1.97
2019-06-01T14:20:49.654Z,2.60
2019-06-01T14:23:18.288Z,3.17
2019-06-01T14:25:46.588Z,1.93
2019-06-01T14:28:14.910Z,1.80
2019-06-01T14:30:43.290Z,1.80
2019-06-01T14:33:11.580Z,2.00
2019-06-01T14:35:40.027Z,1.90
2019-06-01T14:38:08.408Z,2.40
2019-06-01T14:40:36.737Z,1.60
2019-06-01T14:43:05.104Z,1.50
2019-06-01T14:45:33.524Z,1.80
2019-06-01T14:48:01.851Z,1.90
2019-06-01T14:50:30.243Z,1.77
2019-06-01T14:52:58.608Z,2.17
2019-06-01T14:55:27.005Z,1.80
2019-06-01T14:57:56.008Z,1.77
2019-06-01T15:00:24.388Z,1.80
2019-06-01T15:02:52.762Z,1.70
2019-06-01T15:05:21.156Z,2.50
2019-06-01T15:07:50.161Z,2.57
2019-06-01T15:10:18.916Z,2.73
2019-06-01T15:12:51.542Z,2.27
2019-06-01T15:15:17.535Z,2.10
2019-06-01T15:17:45.904Z,2.70
2019-06-01T15:20:14.566Z,1.70
2019-06-01T15:22:42.994Z,1.90
2019-06-01T15:25:11.581Z,1.80
2019-06-01T15:27:39.986Z,1.90
2019-06-01T15:30:12.549Z,1.93
2019-06-01T15:32:40.906Z,4.30
2019-06-01T15:35:09.791Z,3.00
2019-06-01T15:37:38.230Z,4.57
2019-06-01T15:40:10.432Z,2.30
2019-06-01T15:42:38.864Z,2.07
2019-06-01T15:45:07.951Z,1.87
2019-06-01T15:47:36.429Z,2.20
2019-06-01T15:50:07.612Z,2.10
2019-06-01T15:52:36.018Z,3.70
2019-06-01T15:55:06.027Z,4.40
2019-06-01T15:57:34.758Z,3.23
2019-06-01T16:00:04.999Z,2.77
2019-06-01T16:02:33.411Z,2.60
2019-06-01T16:05:01.698Z,2.57
2019-06-01T16:07:30.101Z,2.10
2019-06-01T16:09:59.378Z,4.13
2019-06-01T16:12:27.923Z,4.93
2019-06-01T16:14:57.587Z,1.93
2019-06-01T16:17:26.065Z,2.23
2019-06-01T16:19:55.780Z,2.23
2019-06-01T16:22:24.343Z,1.83
2019-06-01T16:24:53.971Z,2.60
2019-06-01T16:27:22.461Z,2.80
2019-06-01T16:29:50.829Z,2.10
2019-06-01T16:32:19.128Z,1.97
2019-06-01T16:34:47.561Z,2.00
2019-06-01T16:37:15.932Z,2.00
2019-06-01T16:39:58.259Z,2.30
2019-06-01T16:42:14.374Z,2.63
2019-06-01T16:44:42.714Z,2.37
2019-06-01T16:47:11.113Z,2.10
2019-06-01T16:49:39.488Z,2.73
2019-06-01T16:52:07.860Z,2.93
2019-06-01T16:54:36.227Z,2.40
2019-06-01T16:57:05.329Z,2.57
2019-06-01T16:59:33.854Z,2.30
2019-06-01T17:02:03.393Z,2.03
2019-06-01T17:04:31.840Z,2.10
2019-06-01T17:07:00.694Z,2.00
2019-06-01T17:09:29.190Z,2.73
2019-06-01T17:11:58.677Z,3.67
2019-06-01T17:14:27.156Z,5.87
2019-06-01T17:16:57.081Z,3.17
2019-06-01T17:19:25.566Z,2.87
2019-06-01T17:21:53.990Z,3.87
2019-06-01T17:24:22.391Z,2.33
2019-06-01T17:26:50.766Z,3.10
2019-06-01T17:29:19.090Z,4.60
2019-06-01T17:31:54.443Z,2.97
2019-06-01T17:34:17.594Z,5.60
2019-06-01T17:36:45.963Z,4.30
2019-06-01T17:39:14.751Z,2.40
2019-06-01T17:41:43.138Z,2.13
2019-06-01T17:44:11.447Z,3.47
2019-06-01T17:46:53.025Z,2.90
2019-06-01T17:49:09.887Z,3.10
2019-06-01T17:51:38.173Z,2.50
2019-06-01T17:54:08.034Z,2.37
2019-06-01T17:56:36.762Z,3.80
2019-06-01T17:59:05.482Z,3.27
2019-06-01T18:01:33.811Z,3.07
2019-06-01T18:04:02.170Z,3.60
2019-06-01T18:06:30.593Z,3.57
2019-06-01T18:08:58.909Z,6.63
2019-06-01T18:11:27.399Z,2.67
2019-06-01T18:13:55.734Z,4.30
2019-06-01T18:16:24.140Z,9.47
2019-06-01T18:18:52.436Z,3.60
2019-06-01T18:21:20.902Z,7.57
2019-06-01T18:23:49.426Z,11.03
2019-06-01T18:26:17.747Z,9.33
2019-06-01T18:28:46.113Z,9.63
2019-06-01T18:31:20.316Z,4.80
2019-06-01T18:33:48.689Z,11.47
2019-06-01T18:36:17.020Z,7.87
2019-06-01T18:38:45.312Z,8.70
2019-06-01T18:41:18.376Z,5.17
2019-06-01T18:43:43.858Z,14.10
2019-06-01T18:46:12.483Z,6.37
2019-06-01T18:48:40.865Z,28.27
2019-06-01T18:51:10.133Z,25.67
2019-06-01T18:53:38.834Z,32.80
2019-06-01T18:56:08.155Z,20.57
2019-06-01T18:58:36.622Z,25.13
2019-06-01T19:01:06.379Z,14.00
2019-06-01T19:03:34.960Z,14.73
2019-06-01T19:06:03.294Z,6.67
2019-06-01T19:08:31.597Z,7.50
2019-06-01T19:10:59.999Z,6.27
2019-06-01T19:13:28.292Z,9.63
2019-06-01T19:15:56.875Z,9.30
2019-06-01T19:18:25.183Z,9.23
2019-06-01T19:20:53.594Z,17.67
2019-06-01T19:23:22.981Z,12.50
2019-06-01T19:25:51.490Z,10.27
2019-06-01T19:28:19.839Z,8.13
2019-06-01T19:30:48.325Z,20.60
2019-06-01T19:33:18.937Z,48.20
2019-06-01T19:35:46.732Z,30.83
2019-06-01T19:38:15.584Z,25.00
2019-06-01T19:40:44.083Z,42.73
2019-06-01T19:43:13.468Z,15.00
2019-06-01T19:45:41.827Z,19.87
2019-06-01T19:48:10.312Z,14.07
2019-06-01T19:50:38.685Z,24.03
2019-06-01T19:53:08.701Z,13.97
2019-06-01T19:55:37.243Z,37.50
2019-06-01T19:58:05.651Z,10.50
2019-06-01T20:00:34.036Z,13.80
2019-06-01T20:03:02.602Z,15.40
2019-06-01T20:05:30.999Z,12.50
2019-06-01T20:07:59.549Z,19.13
2019-06-01T20:10:27.941Z,12.40
2019-06-01T20:12:56.299Z,11.30
2019-06-01T20:15:24.638Z,9.97
2019-06-01T20:17:53.105Z,16.30
2019-06-01T20:20:21.590Z,9.40
2019-06-01T20:22:50.100Z,8.97
2019-06-01T20:25:20.115Z,9.40
2019-06-01T20:27:48.409Z,8.20
2019-06-01T20:30:17.975Z,8.03
2019-06-01T20:32:46.342Z,8.33
2019-06-01T20:35:15.966Z,10.97
2019-06-01T20:37:44.484Z,11.00
2019-06-01T20:40:14.108Z,11.70
2019-06-01T20:42:42.567Z,16.33
2019-06-01T20:45:12.542Z,18.60
2019-06-01T20:47:40.923Z,19.20
2019-06-01T20:50:10.145Z,39.17
2019-06-01T20:52:38.607Z,35.43
2019-06-01T20:55:07.852Z,34.13
2019-06-01T20:57:36.381Z,32.37
2019-06-01T21:00:11.135Z,29.27
2019-06-01T21:02:39.899Z,24.80
2019-06-01T21:05:08.677Z,29.17
2019-06-01T21:07:37.335Z,19.83
2019-06-01T21:10:07.386Z,15.00
2019-06-01T21:12:44.761Z,11.70
2019-06-01T21:15:06.396Z,15.80
2019-06-01T21:17:34.692Z,17.00
2019-06-01T21:20:05.247Z,18.60
2019-06-01T21:22:33.616Z,17.20
2019-06-01T21:25:02.052Z,17.27
2019-06-01T21:27:30.437Z,15.70
2019-06-01T21:29:58.719Z,19.77
2019-06-01T21:32:27.058Z,20.03
2019-06-01T21:34:55.427Z,17.67
2019-06-01T21:37:24.006Z,15.20
2019-06-01T21:39:52.379Z,20.10
2019-06-01T21:42:21.719Z,19.07
2019-06-01T21:44:50.190Z,14.53
2019-06-01T21:47:19.612Z,14.60
2019-06-01T21:49:48.019Z,12.20
2019-06-01T21:52:16.332Z,14.20
2019-06-01T21:54:44.742Z,12.97
2019-06-01T21:57:13.203Z,21.90
2019-06-01T21:59:41.811Z,11.50
2019-06-01T22:02:10.448Z,13.10
2019-06-01T22:04:38.988Z,8.53
2019-06-01T22:07:07.321Z,13.67
2019-06-01T22:09:35.640Z,17.13
2019-06-01T22:12:04.201Z,12.53
2019-06-01T22:14:32.504Z,12.10
2019-06-01T22:17:01.171Z,7.60
2019-06-01T22:19:29.588Z,8.47
2019-06-01T22:21:57.905Z,11.83
2019-06-01T22:24:26.202Z,9.70
2019-06-01T22:26:54.574Z,11.17
2019-06-01T22:29:24.312Z,10.57
2019-06-01T22:31:52.758Z,9.07
2019-06-01T22:34:21.129Z,9.50
2019-06-01T22:36:49.701Z,8.53
2019-06-01T22:39:19.372Z,8.50
2019-06-01T22:41:48.068Z,9.00
2019-06-01T22:44:16.393Z,8.93
2019-06-01T22:46:44.845Z,8.97
2019-06-01T22:49:13.247Z,7.90
2019-06-01T22:51:41.524Z,10.50
2019-06-01T22:54:09.867Z,10.57
2019-06-01T22:56:38.212Z,7.67
2019-06-01T22:59:06.603Z,6.87
2019-06-01T23:01:34.907Z,8.17
2019-06-01T23:04:03.228Z,14.83
2019-06-01T23:06:31.529Z,12.23
2019-06-01T23:08:59.860Z,8.33
2019-06-01T23:11:29.604Z,10.33
2019-06-01T23:13:58.147Z,7.17
2019-06-01T23:16:27.591Z,6.97
2019-06-01T23:18:55.976Z,11.20
2019-06-01T23:21:24.293Z,11.40
2019-06-01T23:23:52.619Z,7.37
2019-06-01T23:26:22.090Z,6.93
2019-06-01T23:28:50.624Z,7.47
2019-06-01T23:31:18.995Z,9.30
2019-06-01T23:33:47.381Z,8.70
2019-06-01T23:36:15.747Z,8.00
2019-06-01T23:38:44.064Z,7.57
2019-06-01T23:41:12.391Z,8.70
2019-06-01T23:43:40.739Z,9.73
2019-06-01T23:46:09.323Z,12.83
2019-06-01T23:48:37.608Z,10.53
2019-06-01T23:51:06.014Z,9.63
2019-06-01T23:53:34.411Z,9.73
2019-06-01T23:56:02.863Z,7.00
2019-06-01T23:58:32.519Z,7.03
